Carman, IL (61425)

11:23 AM CDT on July 07, 2015 (GMT -0500)
Spirit Hollow GC | | Change Station
CLOSE
Current Station
Personal Weather Station
Location: Burlington, IA
Elevation: 650 ft
Nearby Weather Stations

Elev 650 ft 40.76 °N, 91.14 °W | Updated 36 seconds ago

Partly Cloudy
Partly Cloudy
68.2 °F
Feels Like 68.2 °F
N
0.0
Wind Variable Wind from NE
Gusts 0.0 mph

Today
High -- | Low -- °F
--% Chance of Precip.
Yesterday
High -- | Low -- °F
Precip. -- in
5:39 AM 8:38 PM
Waning Gibbous, 63% visible
Pressure 30.02 in
Visibility 3.0 miles
Clouds Scattered Clouds 2300 ft
Dew Point 17 °F
Humidity 14%
Rainfall 0.00 in
Snow Depth Not available.
UV 7 out of 12
Pollen 1.50 out of 12
Air Quality Not available.
Flu Activity Not available.
SPECI KBRL 071603Z AUTO 02013G22KT 3SM HZ SCT023 21/16 A3002 RMK AO2 T02060156

More Conditions Fewer Conditions

Pressure 30.02 in
Visibility 3.0 miles
Clouds Scattered Clouds 2300 ft
Dew Point 17 °F
Humidity 14%
Rainfall 0.00 in
Snow Depth Not available.
UV 7 out of 12
Pollen 1.50 out of 12
Air Quality Not available.
Flu Activity Not available.
SPECI KBRL 071603Z AUTO 02013G22KT 3SM HZ SCT023 21/16 A3002 RMK AO2 T02060156

More Conditions Fewer Conditions

10-Day Weather Forecast

×

Almanac

Astronomy

Jul. 07, 2015 Rise Set
Actual Time
Civil Twilight
Nautical Twilight
Astronomical Twilight
Moon
Length of Visible Light
Length of Day
Tomorrow will be .
, % of the Moon is Illuminated

Today's Extremes

State Highs State Lows

Community

WunderPhotos

Upload Photos

1,835,834 photos uploaded!

WunderBlogs® & News

Nearby

Air Quality

  Air Quality AQ Index Pollutant
Not available.

Snow Depth

Station Depth Elevation

Earthquake Activity

City Distance Mag. Time & Date
Minimum magnitude displayed is 2.5.

Coastal Water Temperatures

Place Temperature

Stations

Nearby Weather Stations

Station Location Temp. Windchill Dew Point Humidity Wind Precip. Elev Updated Type